sensor_id;sensor_type;location;lat;lon;timestamp;P1;durP1;ratioP1;P2;durP2;ratioP2
2850;SDS011;1433;49.976;8.342;2023-02-11T00:01:07;43.40;;;35.93;;
2850;SDS011;1433;49.976;8.342;2023-02-11T00:03:37;47.03;;;35.50;;
2850;SDS011;1433;49.976;8.342;2023-02-11T00:06:05;45.33;;;34.57;;
2850;SDS011;1433;49.976;8.342;2023-02-11T00:08:35;46.13;;;34.37;;
2850;SDS011;1433;49.976;8.342;2023-02-11T00:11:03;46.20;;;33.40;;
2850;SDS011;1433;49.976;8.342;2023-02-11T00:13:36;44.07;;;33.70;;
2850;SDS011;1433;49.976;8.342;2023-02-11T00:16:10;45.27;;;34.47;;
2850;SDS011;1433;49.976;8.342;2023-02-11T00:18:35;44.57;;;34.50;;
2850;SDS011;1433;49.976;8.342;2023-02-11T00:21:05;43.30;;;33.40;;
2850;SDS011;1433;49.976;8.342;2023-02-11T00:23:36;46.33;;;36.67;;
2850;SDS011;1433;49.976;8.342;2023-02-11T00:26:03;44.27;;;34.43;;
2850;SDS011;1433;49.976;8.342;2023-02-11T00:28:44;49.67;;;34.60;;
2850;SDS011;1433;49.976;8.342;2023-02-11T00:31:11;48.93;;;35.80;;
2850;SDS011;1433;49.976;8.342;2023-02-11T00:33:39;46.33;;;35.97;;
2850;SDS011;1433;49.976;8.342;2023-02-11T00:36:07;51.00;;;36.67;;
2850;SDS011;1433;49.976;8.342;2023-02-11T00:38:44;42.73;;;35.83;;
2850;SDS011;1433;49.976;8.342;2023-02-11T00:41:12;45.27;;;37.20;;
2850;SDS011;1433;49.976;8.342;2023-02-11T00:43:39;45.70;;;35.87;;
2850;SDS011;1433;49.976;8.342;2023-02-11T00:46:06;48.93;;;36.17;;
2850;SDS011;1433;49.976;8.342;2023-02-11T00:48:33;47.10;;;36.03;;
2850;SDS011;1433;49.976;8.342;2023-02-11T00:51:00;42.50;;;34.37;;
2850;SDS011;1433;49.976;8.342;2023-02-11T00:53:29;48.77;;;36.40;;
2850;SDS011;1433;49.976;8.342;2023-02-11T00:55:56;47.40;;;35.53;;
2850;SDS011;1433;49.976;8.342;2023-02-11T00:58:23;46.27;;;37.97;;
2850;SDS011;1433;49.976;8.342;2023-02-11T01:00:50;42.47;;;36.63;;
2850;SDS011;1433;49.976;8.342;2023-02-11T01:03:17;51.07;;;37.67;;
2850;SDS011;1433;49.976;8.342;2023-02-11T01:05:43;40.60;;;33.93;;
2850;SDS011;1433;49.976;8.342;2023-02-11T01:08:10;48.47;;;35.20;;
2850;SDS011;1433;49.976;8.342;2023-02-11T01:10:36;47.80;;;35.60;;
2850;SDS011;1433;49.976;8.342;2023-02-11T01:13:03;57.23;;;35.47;;
2850;SDS011;1433;49.976;8.342;2023-02-11T01:15:31;49.80;;;36.00;;
2850;SDS011;1433;49.976;8.342;2023-02-11T01:17:58;47.97;;;37.47;;
2850;SDS011;1433;49.976;8.342;2023-02-11T01:20:25;47.00;;;34.93;;
2850;SDS011;1433;49.976;8.342;2023-02-11T01:22:53;39.53;;;32.57;;
2850;SDS011;1433;49.976;8.342;2023-02-11T01:25:19;42.17;;;33.37;;
2850;SDS011;1433;49.976;8.342;2023-02-11T01:27:45;49.53;;;38.50;;
2850;SDS011;1433;49.976;8.342;2023-02-11T01:30:12;46.80;;;36.30;;
2850;SDS011;1433;49.976;8.342;2023-02-11T01:32:39;53.43;;;39.30;;
2850;SDS011;1433;49.976;8.342;2023-02-11T01:35:07;44.77;;;36.40;;
2850;SDS011;1433;49.976;8.342;2023-02-11T01:37:35;56.30;;;40.87;;
2850;SDS011;1433;49.976;8.342;2023-02-11T01:40:02;50.10;;;36.00;;
2850;SDS011;1433;49.976;8.342;2023-02-11T01:42:33;45.80;;;33.73;;
2850;SDS011;1433;49.976;8.342;2023-02-11T01:45:00;46.67;;;37.43;;
2850;SDS011;1433;49.976;8.342;2023-02-11T01:47:48;50.33;;;36.47;;
2850;SDS011;1433;49.976;8.342;2023-02-11T01:50:17;50.03;;;37.07;;
2850;SDS011;1433;49.976;8.342;2023-02-11T01:52:45;50.93;;;38.17;;
2850;SDS011;1433;49.976;8.342;2023-02-11T01:55:14;47.97;;;37.90;;
2850;SDS011;1433;49.976;8.342;2023-02-11T01:58:01;53.77;;;40.17;;
2850;SDS011;1433;49.976;8.342;2023-02-11T02:00:33;47.57;;;37.33;;
2850;SDS011;1433;49.976;8.342;2023-02-11T02:03:04;50.73;;;38.77;;
2850;SDS011;1433;49.976;8.342;2023-02-11T02:05:48;46.83;;;36.73;;
2850;SDS011;1433;49.976;8.342;2023-02-11T02:08:39;55.27;;;36.73;;
2850;SDS011;1433;49.976;8.342;2023-02-11T02:11:15;57.90;;;39.07;;
2850;SDS011;1433;49.976;8.342;2023-02-11T02:13:41;49.73;;;37.63;;
2850;SDS011;1433;49.976;8.342;2023-02-11T02:16:12;51.40;;;38.30;;
2850;SDS011;1433;49.976;8.342;2023-02-11T02:24:51;46.80;;;36.63;;
2850;SDS011;1433;49.976;8.342;2023-02-11T02:31:24;52.83;;;38.43;;
2850;SDS011;1433;49.976;8.342;2023-02-11T02:33:32;47.37;;;37.10;;
2850;SDS011;1433;49.976;8.342;2023-02-11T02:36:10;50.97;;;38.13;;
2850;SDS011;1433;49.976;8.342;2023-02-11T02:38:44;52.70;;;38.87;;
2850;SDS011;1433;49.976;8.342;2023-02-11T02:41:27;47.00;;;37.50;;
2850;SDS011;1433;49.976;8.342;2023-02-11T02:43:59;51.97;;;37.67;;
2850;SDS011;1433;49.976;8.342;2023-02-11T02:46:27;56.13;;;39.13;;
2850;SDS011;1433;49.976;8.342;2023-02-11T02:48:57;51.70;;;38.30;;
2850;SDS011;1433;49.976;8.342;2023-02-11T02:54:25;52.50;;;39.57;;
2850;SDS011;1433;49.976;8.342;2023-02-11T02:57:07;45.17;;;37.10;;
2850;SDS011;1433;49.976;8.342;2023-02-11T03:02:57;51.60;;;39.07;;
2850;SDS011;1433;49.976;8.342;2023-02-11T03:08:36;50.87;;;38.77;;
2850;SDS011;1433;49.976;8.342;2023-02-11T03:11:06;54.40;;;40.30;;
2850;SDS011;1433;49.976;8.342;2023-02-11T03:13:35;45.43;;;36.67;;
2850;SDS011;1433;49.976;8.342;2023-02-11T03:16:07;55.47;;;40.80;;
2850;SDS011;1433;49.976;8.342;2023-02-11T03:18:41;57.83;;;41.40;;
2850;SDS011;1433;49.976;8.342;2023-02-11T03:21:12;54.83;;;39.73;;
2850;SDS011;1433;49.976;8.342;2023-02-11T03:24:17;48.17;;;38.47;;
2850;SDS011;1433;49.976;8.342;2023-02-11T03:26:27;50.77;;;39.63;;
2850;SDS011;1433;49.976;8.342;2023-02-11T03:29:09;50.50;;;35.47;;
2850;SDS011;1433;49.976;8.342;2023-02-11T03:32:06;49.57;;;36.10;;
2850;SDS011;1433;49.976;8.342;2023-02-11T03:34:52;46.40;;;38.87;;
2850;SDS011;1433;49.976;8.342;2023-02-11T03:40:16;53.07;;;39.17;;
2850;SDS011;1433;49.976;8.342;2023-02-11T03:42:48;52.10;;;36.67;;
2850;SDS011;1433;49.976;8.342;2023-02-11T03:45:35;44.40;;;36.63;;
2850;SDS011;1433;49.976;8.342;2023-02-11T03:48:04;53.93;;;38.63;;
2850;SDS011;1433;49.976;8.342;2023-02-11T03:50:35;47.10;;;36.73;;
2850;SDS011;1433;49.976;8.342;2023-02-11T03:53:02;54.60;;;37.77;;
2850;SDS011;1433;49.976;8.342;2023-02-11T03:55:30;48.63;;;36.13;;
2850;SDS011;1433;49.976;8.342;2023-02-11T03:58:01;46.77;;;35.43;;
2850;SDS011;1433;49.976;8.342;2023-02-11T04:00:30;45.23;;;34.47;;
2850;SDS011;1433;49.976;8.342;2023-02-11T04:02:59;43.43;;;33.93;;
2850;SDS011;1433;49.976;8.342;2023-02-11T04:05:25;43.40;;;35.17;;
2850;SDS011;1433;49.976;8.342;2023-02-11T04:07:54;40.73;;;32.53;;
2850;SDS011;1433;49.976;8.342;2023-02-11T04:10:20;50.30;;;34.40;;
2850;SDS011;1433;49.976;8.342;2023-02-11T04:12:46;50.53;;;35.37;;
2850;SDS011;1433;49.976;8.342;2023-02-11T04:15:13;46.57;;;32.93;;
2850;SDS011;1433;49.976;8.342;2023-02-11T04:17:40;40.70;;;32.10;;
2850;SDS011;1433;49.976;8.342;2023-02-11T04:20:06;43.03;;;32.27;;
2850;SDS011;1433;49.976;8.342;2023-02-11T04:22:33;49.23;;;35.23;;
2850;SDS011;1433;49.976;8.342;2023-02-11T04:25:00;45.00;;;34.07;;
2850;SDS011;1433;49.976;8.342;2023-02-11T04:27:26;46.13;;;34.97;;
2850;SDS011;1433;49.976;8.342;2023-02-11T04:29:52;40.40;;;33.70;;
2850;SDS011;1433;49.976;8.342;2023-02-11T04:32:19;41.23;;;33.70;;
2850;SDS011;1433;49.976;8.342;2023-02-11T04:34:45;42.53;;;32.50;;
2850;SDS011;1433;49.976;8.342;2023-02-11T04:37:11;40.03;;;31.90;;
2850;SDS011;1433;49.976;8.342;2023-02-11T04:39:37;49.60;;;35.90;;
2850;SDS011;1433;49.976;8.342;2023-02-11T04:42:04;38.87;;;32.57;;
2850;SDS011;1433;49.976;8.342;2023-02-11T04:44:30;42.63;;;33.70;;
2850;SDS011;1433;49.976;8.342;2023-02-11T04:46:56;38.90;;;30.80;;
2850;SDS011;1433;49.976;8.342;2023-02-11T04:49:23;37.60;;;30.33;;
2850;SDS011;1433;49.976;8.342;2023-02-11T04:51:50;35.33;;;30.90;;
2850;SDS011;1433;49.976;8.342;2023-02-11T04:54:16;43.70;;;31.30;;
2850;SDS011;1433;49.976;8.342;2023-02-11T04:56:43;45.70;;;33.17;;
2850;SDS011;1433;49.976;8.342;2023-02-11T04:59:09;38.13;;;34.00;;
2850;SDS011;1433;49.976;8.342;2023-02-11T05:01:37;47.27;;;33.00;;
2850;SDS011;1433;49.976;8.342;2023-02-11T05:04:04;40.27;;;30.83;;
2850;SDS011;1433;49.976;8.342;2023-02-11T05:06:30;45.57;;;31.97;;
2850;SDS011;1433;49.976;8.342;2023-02-11T05:08:56;41.80;;;31.07;;
2850;SDS011;1433;49.976;8.342;2023-02-11T05:11:23;44.00;;;32.37;;
2850;SDS011;1433;49.976;8.342;2023-02-11T05:13:50;36.90;;;29.70;;
2850;SDS011;1433;49.976;8.342;2023-02-11T05:16:17;41.17;;;32.80;;
2850;SDS011;1433;49.976;8.342;2023-02-11T05:18:44;40.13;;;29.40;;
2850;SDS011;1433;49.976;8.342;2023-02-11T05:21:11;45.67;;;32.53;;
2850;SDS011;1433;49.976;8.342;2023-02-11T05:23:42;42.33;;;31.60;;
2850;SDS011;1433;49.976;8.342;2023-02-11T05:26:10;47.43;;;32.20;;
2850;SDS011;1433;49.976;8.342;2023-02-11T05:28:37;41.30;;;31.57;;
2850;SDS011;1433;49.976;8.342;2023-02-11T05:31:05;37.10;;;31.30;;
2850;SDS011;1433;49.976;8.342;2023-02-11T05:33:32;42.90;;;33.03;;
2850;SDS011;1433;49.976;8.342;2023-02-11T05:36:04;40.47;;;30.60;;
2850;SDS011;1433;49.976;8.342;2023-02-11T05:38:30;37.13;;;31.17;;
2850;SDS011;1433;49.976;8.342;2023-02-11T05:40:56;44.47;;;33.90;;
2850;SDS011;1433;49.976;8.342;2023-02-11T05:43:23;41.80;;;31.20;;
2850;SDS011;1433;49.976;8.342;2023-02-11T05:45:49;46.33;;;33.20;;
2850;SDS011;1433;49.976;8.342;2023-02-11T05:48:15;46.17;;;32.13;;
2850;SDS011;1433;49.976;8.342;2023-02-11T05:50:42;37.17;;;31.77;;
2850;SDS011;1433;49.976;8.342;2023-02-11T05:53:09;36.20;;;29.40;;
2850;SDS011;1433;49.976;8.342;2023-02-11T05:55:35;36.03;;;31.27;;
2850;SDS011;1433;49.976;8.342;2023-02-11T05:58:02;39.37;;;28.77;;
2850;SDS011;1433;49.976;8.342;2023-02-11T06:00:29;37.50;;;31.13;;
2850;SDS011;1433;49.976;8.342;2023-02-11T06:02:55;39.90;;;33.27;;
2850;SDS011;1433;49.976;8.342;2023-02-11T06:05:21;40.50;;;30.60;;
2850;SDS011;1433;49.976;8.342;2023-02-11T06:07:47;38.93;;;31.77;;
2850;SDS011;1433;49.976;8.342;2023-02-11T06:10:13;44.50;;;32.90;;
2850;SDS011;1433;49.976;8.342;2023-02-11T06:12:40;37.80;;;30.47;;
2850;SDS011;1433;49.976;8.342;2023-02-11T06:15:06;40.13;;;32.40;;
2850;SDS011;1433;49.976;8.342;2023-02-11T06:17:33;41.83;;;31.67;;
2850;SDS011;1433;49.976;8.342;2023-02-11T06:20:01;44.63;;;31.30;;
2850;SDS011;1433;49.976;8.342;2023-02-11T06:22:29;43.00;;;31.30;;
2850;SDS011;1433;49.976;8.342;2023-02-11T06:24:57;38.87;;;31.43;;
2850;SDS011;1433;49.976;8.342;2023-02-11T06:27:23;41.63;;;32.73;;
2850;SDS011;1433;49.976;8.342;2023-02-11T06:29:49;37.37;;;30.60;;
2850;SDS011;1433;49.976;8.342;2023-02-11T06:32:17;38.13;;;30.80;;
2850;SDS011;1433;49.976;8.342;2023-02-11T06:34:44;38.50;;;31.57;;
2850;SDS011;1433;49.976;8.342;2023-02-11T06:37:11;41.27;;;32.80;;
2850;SDS011;1433;49.976;8.342;2023-02-11T06:39:37;43.30;;;32.27;;
2850;SDS011;1433;49.976;8.342;2023-02-11T06:42:04;45.17;;;31.03;;
2850;SDS011;1433;49.976;8.342;2023-02-11T06:44:30;47.60;;;35.20;;
2850;SDS011;1433;49.976;8.342;2023-02-11T06:46:56;43.90;;;36.60;;
2850;SDS011;1433;49.976;8.342;2023-02-11T06:49:23;53.70;;;38.33;;
2850;SDS011;1433;49.976;8.342;2023-02-11T06:51:49;43.07;;;33.73;;
2850;SDS011;1433;49.976;8.342;2023-02-11T06:54:15;39.80;;;31.80;;
2850;SDS011;1433;49.976;8.342;2023-02-11T06:56:41;39.53;;;32.57;;
2850;SDS011;1433;49.976;8.342;2023-02-11T06:59:08;45.13;;;30.37;;
2850;SDS011;1433;49.976;8.342;2023-02-11T07:01:41;43.33;;;32.27;;
2850;SDS011;1433;49.976;8.342;2023-02-11T07:04:07;37.63;;;32.80;;
2850;SDS011;1433;49.976;8.342;2023-02-11T07:06:33;36.17;;;30.07;;
2850;SDS011;1433;49.976;8.342;2023-02-11T07:09:02;41.23;;;31.23;;
2850;SDS011;1433;49.976;8.342;2023-02-11T07:11:30;40.10;;;29.80;;
2850;SDS011;1433;49.976;8.342;2023-02-11T07:14:04;42.70;;;31.43;;
2850;SDS011;1433;49.976;8.342;2023-02-11T07:16:33;36.43;;;28.80;;
2850;SDS011;1433;49.976;8.342;2023-02-11T07:19:00;37.93;;;29.13;;
2850;SDS011;1433;49.976;8.342;2023-02-11T07:21:26;41.60;;;30.90;;
2850;SDS011;1433;49.976;8.342;2023-02-11T07:23:52;34.70;;;27.97;;
2850;SDS011;1433;49.976;8.342;2023-02-11T07:26:20;40.83;;;31.47;;
2850;SDS011;1433;49.976;8.342;2023-02-11T07:28:48;38.50;;;30.37;;
2850;SDS011;1433;49.976;8.342;2023-02-11T07:31:17;37.20;;;31.20;;
2850;SDS011;1433;49.976;8.342;2023-02-11T07:33:46;40.20;;;31.50;;
2850;SDS011;1433;49.976;8.342;2023-02-11T07:36:13;44.40;;;30.23;;
2850;SDS011;1433;49.976;8.342;2023-02-11T07:38:41;39.13;;;29.80;;
2850;SDS011;1433;49.976;8.342;2023-02-11T07:41:12;39.77;;;29.97;;
2850;SDS011;1433;49.976;8.342;2023-02-11T07:43:38;36.80;;;28.20;;
2850;SDS011;1433;49.976;8.342;2023-02-11T07:46:11;36.80;;;29.93;;
2850;SDS011;1433;49.976;8.342;2023-02-11T07:48:37;39.73;;;29.13;;
2850;SDS011;1433;49.976;8.342;2023-02-11T07:51:04;37.20;;;29.60;;
2850;SDS011;1433;49.976;8.342;2023-02-11T07:53:35;33.07;;;27.50;;
2850;SDS011;1433;49.976;8.342;2023-02-11T07:56:02;36.97;;;28.73;;
2850;SDS011;1433;49.976;8.342;2023-02-11T07:58:29;39.23;;;30.47;;
2850;SDS011;1433;49.976;8.342;2023-02-11T08:01:04;43.00;;;31.53;;
2850;SDS011;1433;49.976;8.342;2023-02-11T08:03:30;42.17;;;31.30;;
2850;SDS011;1433;49.976;8.342;2023-02-11T08:06:02;43.13;;;30.20;;
2850;SDS011;1433;49.976;8.342;2023-02-11T08:08:31;40.47;;;31.20;;
2850;SDS011;1433;49.976;8.342;2023-02-11T08:10:58;34.10;;;29.30;;
2850;SDS011;1433;49.976;8.342;2023-02-11T08:13:24;37.13;;;29.30;;
2850;SDS011;1433;49.976;8.342;2023-02-11T08:15:51;45.77;;;31.27;;
2850;SDS011;1433;49.976;8.342;2023-02-11T08:18:21;39.33;;;30.00;;
2850;SDS011;1433;49.976;8.342;2023-02-11T08:20:47;36.53;;;28.10;;
2850;SDS011;1433;49.976;8.342;2023-02-11T08:23:14;32.00;;;27.87;;
2850;SDS011;1433;49.976;8.342;2023-02-11T08:25:40;40.33;;;30.30;;
2850;SDS011;1433;49.976;8.342;2023-02-11T08:28:07;37.23;;;29.93;;
2850;SDS011;1433;49.976;8.342;2023-02-11T08:30:34;34.50;;;29.17;;
2850;SDS011;1433;49.976;8.342;2023-02-11T08:33:00;39.27;;;30.90;;
2850;SDS011;1433;49.976;8.342;2023-02-11T08:35:27;33.97;;;28.53;;
2850;SDS011;1433;49.976;8.342;2023-02-11T08:37:53;38.57;;;30.43;;
2850;SDS011;1433;49.976;8.342;2023-02-11T08:40:21;36.37;;;31.47;;
2850;SDS011;1433;49.976;8.342;2023-02-11T08:42:50;31.33;;;26.67;;
2850;SDS011;1433;49.976;8.342;2023-02-11T08:45:16;39.10;;;30.23;;
2850;SDS011;1433;49.976;8.342;2023-02-11T08:47:43;34.60;;;30.17;;
2850;SDS011;1433;49.976;8.342;2023-02-11T08:50:09;33.43;;;29.53;;
2850;SDS011;1433;49.976;8.342;2023-02-11T08:52:35;34.80;;;29.83;;
2850;SDS011;1433;49.976;8.342;2023-02-11T08:55:02;39.33;;;32.77;;
2850;SDS011;1433;49.976;8.342;2023-02-11T08:57:29;30.50;;;27.03;;
2850;SDS011;1433;49.976;8.342;2023-02-11T08:59:55;28.93;;;25.73;;
2850;SDS011;1433;49.976;8.342;2023-02-11T09:02:23;32.00;;;28.27;;
2850;SDS011;1433;49.976;8.342;2023-02-11T09:04:49;31.93;;;28.53;;
2850;SDS011;1433;49.976;8.342;2023-02-11T09:07:17;31.50;;;27.00;;
2850;SDS011;1433;49.976;8.342;2023-02-11T09:09:44;29.73;;;25.30;;
2850;SDS011;1433;49.976;8.342;2023-02-11T09:12:10;31.13;;;27.63;;
2850;SDS011;1433;49.976;8.342;2023-02-11T09:14:39;29.80;;;26.60;;
2850;SDS011;1433;49.976;8.342;2023-02-11T09:17:08;29.27;;;25.70;;
2850;SDS011;1433;49.976;8.342;2023-02-11T09:19:34;34.90;;;29.90;;
2850;SDS011;1433;49.976;8.342;2023-02-11T09:22:01;34.20;;;28.80;;
2850;SDS011;1433;49.976;8.342;2023-02-11T09:24:27;32.63;;;28.73;;
2850;SDS011;1433;49.976;8.342;2023-02-11T09:26:53;33.13;;;25.40;;
2850;SDS011;1433;49.976;8.342;2023-02-11T09:29:19;35.50;;;28.33;;
2850;SDS011;1433;49.976;8.342;2023-02-11T09:31:46;36.07;;;29.87;;
2850;SDS011;1433;49.976;8.342;2023-02-11T09:34:12;35.30;;;27.60;;
2850;SDS011;1433;49.976;8.342;2023-02-11T09:36:40;31.80;;;27.07;;
2850;SDS011;1433;49.976;8.342;2023-02-11T09:39:08;32.33;;;28.83;;
2850;SDS011;1433;49.976;8.342;2023-02-11T09:41:48;30.20;;;26.83;;
2850;SDS011;1433;49.976;8.342;2023-02-11T09:44:35;36.00;;;28.30;;
2850;SDS011;1433;49.976;8.342;2023-02-11T09:47:13;35.17;;;29.57;;
2850;SDS011;1433;49.976;8.342;2023-02-11T09:49:54;41.93;;;30.13;;
2850;SDS011;1433;49.976;8.342;2023-02-11T09:55:24;31.43;;;27.77;;
2850;SDS011;1433;49.976;8.342;2023-02-11T09:57:48;28.77;;;25.97;;
2850;SDS011;1433;49.976;8.342;2023-02-11T10:00:19;31.40;;;28.30;;
2850;SDS011;1433;49.976;8.342;2023-02-11T10:02:54;32.37;;;28.40;;
2850;SDS011;1433;49.976;8.342;2023-02-11T10:05:39;35.03;;;29.33;;
2850;SDS011;1433;49.976;8.342;2023-02-11T10:11:25;30.10;;;27.00;;
2850;SDS011;1433;49.976;8.342;2023-02-11T10:14:24;31.07;;;27.70;;
2850;SDS011;1433;49.976;8.342;2023-02-11T10:17:26;33.00;;;25.27;;
2850;SDS011;1433;49.976;8.342;2023-02-11T10:22:36;31.33;;;27.67;;
2850;SDS011;1433;49.976;8.342;2023-02-11T10:25:16;29.10;;;25.03;;
2850;SDS011;1433;49.976;8.342;2023-02-11T10:27:54;27.93;;;24.90;;
2850;SDS011;1433;49.976;8.342;2023-02-11T10:30:36;29.90;;;25.87;;
2850;SDS011;1433;49.976;8.342;2023-02-11T10:33:27;27.70;;;23.93;;
2850;SDS011;1433;49.976;8.342;2023-02-11T10:36:10;30.60;;;26.77;;
2850;SDS011;1433;49.976;8.342;2023-02-11T10:38:38;28.73;;;25.77;;
2850;SDS011;1433;49.976;8.342;2023-02-11T10:41:05;28.57;;;25.57;;
2850;SDS011;1433;49.976;8.342;2023-02-11T10:43:32;26.90;;;24.03;;
2850;SDS011;1433;49.976;8.342;2023-02-11T10:45:59;30.77;;;26.27;;
2850;SDS011;1433;49.976;8.342;2023-02-11T10:51:22;33.63;;;26.47;;
2850;SDS011;1433;49.976;8.342;2023-02-11T10:56:47;28.17;;;24.20;;
2850;SDS011;1433;49.976;8.342;2023-02-11T11:04:57;30.23;;;26.03;;
2850;SDS011;1433;49.976;8.342;2023-02-11T11:07:28;34.40;;;29.43;;
2850;SDS011;1433;49.976;8.342;2023-02-11T11:10:02;27.70;;;22.43;;
2850;SDS011;1433;49.976;8.342;2023-02-11T11:12:39;29.23;;;26.13;;
2850;SDS011;1433;49.976;8.342;2023-02-11T11:17:47;29.70;;;24.20;;
2850;SDS011;1433;49.976;8.342;2023-02-11T11:23:39;29.57;;;22.97;;
2850;SDS011;1433;49.976;8.342;2023-02-11T11:25:55;29.57;;;22.77;;
2850;SDS011;1433;49.976;8.342;2023-02-11T11:31:29;27.77;;;23.00;;
2850;SDS011;1433;49.976;8.342;2023-02-11T11:34:20;33.00;;;23.90;;
2850;SDS011;1433;49.976;8.342;2023-02-11T11:37:25;30.67;;;24.50;;
2850;SDS011;1433;49.976;8.342;2023-02-11T11:39:39;27.80;;;22.73;;
2850;SDS011;1433;49.976;8.342;2023-02-11T11:44:59;26.30;;;21.53;;
2850;SDS011;1433;49.976;8.342;2023-02-11T11:58:40;30.07;;;21.37;;
2850;SDS011;1433;49.976;8.342;2023-02-11T12:04:04;24.13;;;21.00;;
2850;SDS011;1433;49.976;8.342;2023-02-11T12:12:38;27.50;;;21.03;;
2850;SDS011;1433;49.976;8.342;2023-02-11T12:24:04;22.70;;;18.43;;
2850;SDS011;1433;49.976;8.342;2023-02-11T12:27:01;27.50;;;20.40;;
2850;SDS011;1433;49.976;8.342;2023-02-11T12:35:12;20.57;;;18.30;;
2850;SDS011;1433;49.976;8.342;2023-02-11T12:43:52;24.23;;;19.00;;
2850;SDS011;1433;49.976;8.342;2023-02-11T12:52:04;20.70;;;18.60;;
2850;SDS011;1433;49.976;8.342;2023-02-11T12:54:53;22.50;;;18.87;;
2850;SDS011;1433;49.976;8.342;2023-02-11T12:57:25;22.03;;;19.17;;
2850;SDS011;1433;49.976;8.342;2023-02-11T13:08:32;20.50;;;18.40;;
2850;SDS011;1433;49.976;8.342;2023-02-11T13:11:12;19.63;;;17.53;;
2850;SDS011;1433;49.976;8.342;2023-02-11T13:16:39;17.23;;;15.33;;
2850;SDS011;1433;49.976;8.342;2023-02-11T13:30:32;22.67;;;17.47;;
2850;SDS011;1433;49.976;8.342;2023-02-11T13:33:15;21.67;;;16.00;;
2850;SDS011;1433;49.976;8.342;2023-02-11T13:35:40;23.97;;;16.20;;
2850;SDS011;1433;49.976;8.342;2023-02-11T13:38:18;20.00;;;15.93;;
2850;SDS011;1433;49.976;8.342;2023-02-11T13:43:42;20.13;;;16.00;;
2850;SDS011;1433;49.976;8.342;2023-02-11T13:46:12;17.47;;;15.67;;
2850;SDS011;1433;49.976;8.342;2023-02-11T13:48:47;25.17;;;16.00;;
2850;SDS011;1433;49.976;8.342;2023-02-11T13:51:39;16.07;;;13.60;;
2850;SDS011;1433;49.976;8.342;2023-02-11T13:54:05;16.27;;;14.43;;
2850;SDS011;1433;49.976;8.342;2023-02-11T13:56:34;18.53;;;14.50;;
2850;SDS011;1433;49.976;8.342;2023-02-11T13:59:06;17.13;;;15.13;;
2850;SDS011;1433;49.976;8.342;2023-02-11T14:11:06;13.30;;;11.80;;
2850;SDS011;1433;49.976;8.342;2023-02-11T14:14:17;12.90;;;11.13;;
2850;SDS011;1433;49.976;8.342;2023-02-11T14:19:39;19.27;;;12.57;;
2850;SDS011;1433;49.976;8.342;2023-02-11T14:27:24;13.73;;;12.33;;
2850;SDS011;1433;49.976;8.342;2023-02-11T14:33:11;15.93;;;11.17;;
2850;SDS011;1433;49.976;8.342;2023-02-11T14:41:21;12.93;;;11.70;;
2850;SDS011;1433;49.976;8.342;2023-02-11T14:43:54;15.60;;;13.90;;
2850;SDS011;1433;49.976;8.342;2023-02-11T14:46:24;14.93;;;13.40;;
2850;SDS011;1433;49.976;8.342;2023-02-11T14:48:52;13.73;;;12.40;;
2850;SDS011;1433;49.976;8.342;2023-02-11T14:51:27;14.27;;;12.77;;
2850;SDS011;1433;49.976;8.342;2023-02-11T14:53:58;14.60;;;12.63;;
2850;SDS011;1433;49.976;8.342;2023-02-11T14:56:39;13.10;;;11.77;;
2850;SDS011;1433;49.976;8.342;2023-02-11T14:59:17;12.63;;;11.33;;
2850;SDS011;1433;49.976;8.342;2023-02-11T15:01:50;13.53;;;12.13;;
2850;SDS011;1433;49.976;8.342;2023-02-11T15:04:29;13.33;;;11.73;;
2850;SDS011;1433;49.976;8.342;2023-02-11T15:07:01;17.00;;;12.37;;
2850;SDS011;1433;49.976;8.342;2023-02-11T15:09:41;11.10;;;10.00;;
2850;SDS011;1433;49.976;8.342;2023-02-11T15:12:15;15.50;;;11.63;;
2850;SDS011;1433;49.976;8.342;2023-02-11T15:14:51;12.40;;;11.13;;
2850;SDS011;1433;49.976;8.342;2023-02-11T15:17:22;12.93;;;11.47;;
2850;SDS011;1433;49.976;8.342;2023-02-11T15:19:51;14.70;;;11.60;;
2850;SDS011;1433;49.976;8.342;2023-02-11T15:22:22;12.80;;;11.50;;
2850;SDS011;1433;49.976;8.342;2023-02-11T15:24:59;13.23;;;11.90;;
2850;SDS011;1433;49.976;8.342;2023-02-11T15:27:39;14.70;;;13.20;;
2850;SDS011;1433;49.976;8.342;2023-02-11T15:32:57;13.20;;;11.73;;
2850;SDS011;1433;49.976;8.342;2023-02-11T15:35:28;15.73;;;10.93;;
2850;SDS011;1433;49.976;8.342;2023-02-11T15:38:01;13.97;;;12.50;;
2850;SDS011;1433;49.976;8.342;2023-02-11T15:40:29;12.13;;;10.97;;
2850;SDS011;1433;49.976;8.342;2023-02-11T15:43:00;12.03;;;10.40;;
2850;SDS011;1433;49.976;8.342;2023-02-11T15:45:33;12.20;;;10.90;;
2850;SDS011;1433;49.976;8.342;2023-02-11T15:50:52;11.20;;;10.17;;
2850;SDS011;1433;49.976;8.342;2023-02-11T15:58:50;10.90;;;9.80;;
2850;SDS011;1433;49.976;8.342;2023-02-11T16:01:32;9.20;;;8.10;;
2850;SDS011;1433;49.976;8.342;2023-02-11T16:04:02;11.03;;;9.23;;
2850;SDS011;1433;49.976;8.342;2023-02-11T16:06:37;11.03;;;9.40;;
2850;SDS011;1433;49.976;8.342;2023-02-11T16:14:29;14.13;;;12.53;;
2850;SDS011;1433;49.976;8.342;2023-02-11T16:17:03;16.40;;;12.87;;
2850;SDS011;1433;49.976;8.342;2023-02-11T16:19:42;15.73;;;14.03;;
2850;SDS011;1433;49.976;8.342;2023-02-11T16:22:14;18.13;;;14.53;;
2850;SDS011;1433;49.976;8.342;2023-02-11T16:24:45;17.10;;;15.03;;
2850;SDS011;1433;49.976;8.342;2023-02-11T16:30:04;18.63;;;16.50;;
2850;SDS011;1433;49.976;8.342;2023-02-11T16:32:34;19.27;;;17.13;;
2850;SDS011;1433;49.976;8.342;2023-02-11T16:35:00;22.63;;;18.33;;
2850;SDS011;1433;49.976;8.342;2023-02-11T16:37:26;20.17;;;18.00;;
2850;SDS011;1433;49.976;8.342;2023-02-11T16:39:53;22.00;;;19.37;;
2850;SDS011;1433;49.976;8.342;2023-02-11T16:42:21;25.00;;;19.50;;
2850;SDS011;1433;49.976;8.342;2023-02-11T16:44:48;21.03;;;19.03;;
2850;SDS011;1433;49.976;8.342;2023-02-11T16:47:24;21.33;;;19.23;;
2850;SDS011;1433;49.976;8.342;2023-02-11T16:49:52;25.03;;;19.97;;
2850;SDS011;1433;49.976;8.342;2023-02-11T16:52:22;22.77;;;20.07;;
2850;SDS011;1433;49.976;8.342;2023-02-11T16:54:51;24.10;;;20.10;;
2850;SDS011;1433;49.976;8.342;2023-02-11T16:57:19;23.17;;;20.80;;
2850;SDS011;1433;49.976;8.342;2023-02-11T16:59:50;25.13;;;20.03;;
2850;SDS011;1433;49.976;8.342;2023-02-11T17:02:19;21.40;;;19.13;;
2850;SDS011;1433;49.976;8.342;2023-02-11T17:04:52;26.40;;;21.00;;
2850;SDS011;1433;49.976;8.342;2023-02-11T17:07:20;24.30;;;21.80;;
2850;SDS011;1433;49.976;8.342;2023-02-11T17:09:47;24.23;;;21.63;;
2850;SDS011;1433;49.976;8.342;2023-02-11T17:12:13;22.27;;;19.90;;
2850;SDS011;1433;49.976;8.342;2023-02-11T17:14:39;28.20;;;20.17;;
2850;SDS011;1433;49.976;8.342;2023-02-11T17:17:06;24.70;;;22.17;;
2850;SDS011;1433;49.976;8.342;2023-02-11T17:19:32;23.30;;;20.83;;
2850;SDS011;1433;49.976;8.342;2023-02-11T17:21:58;25.13;;;21.10;;
2850;SDS011;1433;49.976;8.342;2023-02-11T17:24:25;24.67;;;22.17;;
2850;SDS011;1433;49.976;8.342;2023-02-11T17:26:51;25.17;;;22.50;;
2850;SDS011;1433;49.976;8.342;2023-02-11T17:29:18;23.27;;;20.87;;
2850;SDS011;1433;49.976;8.342;2023-02-11T17:31:48;25.30;;;22.60;;
2850;SDS011;1433;49.976;8.342;2023-02-11T17:34:17;25.10;;;21.17;;
2850;SDS011;1433;49.976;8.342;2023-02-11T17:36:45;25.37;;;22.07;;
2850;SDS011;1433;49.976;8.342;2023-02-11T17:39:11;23.23;;;19.60;;
2850;SDS011;1433;49.976;8.342;2023-02-11T17:41:38;24.50;;;20.23;;
2850;SDS011;1433;49.976;8.342;2023-02-11T17:44:06;23.20;;;20.80;;
2850;SDS011;1433;49.976;8.342;2023-02-11T17:46:33;22.90;;;20.60;;
2850;SDS011;1433;49.976;8.342;2023-02-11T17:49:00;22.60;;;20.27;;
2850;SDS011;1433;49.976;8.342;2023-02-11T17:51:29;23.63;;;19.23;;
2850;SDS011;1433;49.976;8.342;2023-02-11T17:54:00;24.03;;;20.10;;
2850;SDS011;1433;49.976;8.342;2023-02-11T17:56:32;24.00;;;21.40;;
2850;SDS011;1433;49.976;8.342;2023-02-11T17:59:02;21.33;;;19.10;;